weather.gov     
National Weather Service

Terminal Aerodrome Forecast
NWS Homepage
This page is being discontinued on March 12, 2014.
The same data is available at this site. Please update your bookmarks.
Thank you, and we apologize for the inconvenience.
Please send an email to SR-SRH.Webmaster@noaa.gov with any concerns.


Current Version
Previous Version:    01  02  03  04  05  06  07  08  09  10  11  12  13  14  15  16  17  18  19  20  21  22  23  24  25  26  27  28  29  30  
   31  32  33  34  35  36  37  38  39  40  41  42  43  44  45  46  47  
[Printable]
656
FTUS43 KGRB 241700
TAFAUW
TAF
KAUW 241720Z 2418/2518 20006KT 4SM BR BKN004
      TEMPO 2418/2420 2SM BR BKN002
     FM242000 21006KT 5SM BR BKN012
     FM250000 21005KT 5SM BR SCT030
     FM250400 25006KT 5SM BR SCT006 SCT250
     FM250600 26006KT 2SM BR BKN005
     FM251000 29011KT P6SM SCT015=


U.S. Dept. of Commerce
NOAA National Weather Service
1325 East West Highway
Silver Spring, MD 20910
E-mail: w-nws.webmaster@noaa.gov
Page last modified: May 16, 2007
NATIONAL WEATHER SERVICE: for Safety, for Work, for Fun - FOR LIFE